createdAt,value
2022-12-23T00:01:24.104Z,99858.19
2022-12-23T00:03:52.070Z,99863.34
2022-12-23T00:06:20.720Z,99863.34
2022-12-23T00:08:47.575Z,99848.63
2022-12-23T00:11:17.563Z,99855.63
2022-12-23T00:13:44.757Z,99866.91
2022-12-23T00:16:14.476Z,99857.34
2022-12-23T00:18:42.509Z,99852.09
2022-12-23T00:21:13.047Z,99865.97
2022-12-23T00:23:42.971Z,99867.75
2022-12-23T00:26:26.727Z,99853.91
2022-12-23T00:28:56.527Z,99856.53
2022-12-23T00:31:23.606Z,99859.13
2022-12-23T00:33:51.717Z,99847.00
2022-12-23T00:36:23.928Z,99848.72
2022-12-23T00:38:51.531Z,99857.34
2022-12-23T00:41:19.048Z,99848.69
2022-12-23T00:43:45.913Z,99853.03
2022-12-23T00:46:12.910Z,99846.94
2022-12-23T00:48:39.903Z,99842.47
2022-12-23T00:51:06.750Z,99841.72
2022-12-23T00:53:33.723Z,99837.38
2022-12-23T00:56:00.650Z,99842.63
2022-12-23T00:58:27.363Z,99839.97
2022-12-23T01:00:54.325Z,99840.91
2022-12-23T01:03:21.098Z,99834.88
2022-12-23T01:05:47.775Z,99837.34
2022-12-23T01:08:14.350Z,99841.72
2022-12-23T01:10:41.107Z,99843.28
2022-12-23T01:13:07.846Z,99838.94
2022-12-23T01:15:34.466Z,99838.28
2022-12-23T01:18:01.119Z,99832.22
2022-12-23T01:20:27.796Z,99830.31
2022-12-23T01:22:54.429Z,99820.72
2022-12-23T01:25:21.060Z,99827.56
2022-12-23T01:27:47.721Z,99825.78
2022-12-23T01:30:14.542Z,99820.69
2022-12-23T01:32:41.201Z,99821.47
2022-12-23T01:35:08.118Z,99816.06
2022-12-23T01:37:34.727Z,99813.66
2022-12-23T01:40:01.329Z,99811.91
2022-12-23T01:42:28.006Z,99822.13
2022-12-23T01:45:01.184Z,99810.22
2022-12-23T01:47:47.504Z,99809.41
2022-12-23T01:50:37.294Z,99807.56
2022-12-23T01:53:12.206Z,99804.78
2022-12-23T01:55:45.418Z,99802.25
2022-12-23T01:58:21.457Z,99797.72
2022-12-23T02:00:48.080Z,99798.56
2022-12-23T02:03:14.712Z,99801.50
2022-12-23T02:05:44.942Z,99795.41
2022-12-23T02:08:13.731Z,99798.84
2022-12-23T02:11:16.750Z,99791.13
2022-12-23T02:14:09.404Z,99782.34
2022-12-23T02:16:46.688Z,99777.13
2022-12-23T02:19:43.231Z,99779.81
2022-12-23T02:22:39.302Z,99777.19
2022-12-23T02:25:24.627Z,99783.22
2022-12-23T02:28:25.181Z,99777.91
2022-12-23T02:31:29.723Z,99777.28
2022-12-23T02:34:16.759Z,99766.13
2022-12-23T02:36:52.615Z,99776.25
2022-12-23T02:39:33.315Z,99760.28
2022-12-23T02:42:09.578Z,99766.38
2022-12-23T02:44:56.862Z,99770.75
2022-12-23T02:47:40.010Z,99757.84
2022-12-23T02:50:16.142Z,99763.03
2022-12-23T02:52:46.768Z,99767.63
2022-12-23T02:55:18.313Z,99753.75
2022-12-23T02:57:49.198Z,99755.50
2022-12-23T03:00:17.401Z,99754.69
2022-12-23T03:02:44.393Z,99764.09
2022-12-23T03:05:27.592Z,99774.06
2022-12-23T03:07:58.346Z,99769.25
2022-12-23T03:10:51.194Z,99768.78
2022-12-23T03:13:36.720Z,99774.50
2022-12-23T03:16:18.233Z,99761.69
2022-12-23T03:19:22.183Z,99776.47
2022-12-23T03:21:54.724Z,99775.56
2022-12-23T03:24:31.423Z,99758.34
2022-12-23T03:27:08.376Z,99767.03
2022-12-23T03:29:46.838Z,99766.34
2022-12-23T03:32:16.438Z,99767.00
2022-12-23T03:34:48.386Z,99762.56
2022-12-23T03:37:18.842Z,99765.66
2022-12-23T03:39:55.286Z,99759.09
2022-12-23T03:42:30.792Z,99756.19
2022-12-23T03:45:36.968Z,99759.63
2022-12-23T03:47:55.722Z,99764.41
2022-12-23T03:50:24.859Z,99751.31
2022-12-23T03:52:58.556Z,99749.63
2022-12-23T03:55:49.642Z,99753.00
2022-12-23T03:58:25.511Z,99756.44
2022-12-23T04:01:26.954Z,99752.00
2022-12-23T04:03:59.222Z,99765.16
2022-12-23T04:06:33.260Z,99758.31
2022-12-23T04:09:02.074Z,99752.16
2022-12-23T04:11:29.588Z,99749.53
2022-12-23T04:13:56.237Z,99752.19
2022-12-23T04:16:23.322Z,99753.00
2022-12-23T04:18:50.045Z,99742.53
2022-12-23T04:21:16.746Z,99741.53
2022-12-23T04:23:43.338Z,99742.41
2022-12-23T04:26:10.025Z,99729.53
2022-12-23T04:28:36.655Z,99727.75
2022-12-23T04:31:03.374Z,99735.72
2022-12-23T04:33:30.007Z,99733.91
2022-12-23T04:35:59.564Z,99727.97
2022-12-23T04:38:26.227Z,99733.00
2022-12-23T04:40:52.848Z,99739.28
2022-12-23T04:43:19.436Z,99741.00
2022-12-23T04:45:50.557Z,99742.91
2022-12-23T04:48:17.849Z,99734.34
2022-12-23T04:50:44.492Z,99742.16
2022-12-23T04:53:11.181Z,99758.69
2022-12-23T04:55:37.759Z,99749.94
2022-12-23T04:58:04.455Z,99752.53
2022-12-23T05:00:37.163Z,99739.53
2022-12-23T05:03:05.978Z,99750.78
2022-12-23T05:05:32.711Z,99756.09
2022-12-23T05:08:04.617Z,99746.53
2022-12-23T05:10:31.813Z,99749.94
2022-12-23T05:12:58.427Z,99753.50
2022-12-23T05:15:25.057Z,99745.59
2022-12-23T05:17:51.775Z,99745.59
2022-12-23T05:20:18.386Z,99743.88
2022-12-23T05:22:44.987Z,99756.84
2022-12-23T05:25:11.680Z,99765.56
2022-12-23T05:27:38.305Z,99754.34
2022-12-23T05:30:05.707Z,99752.59
2022-12-23T05:32:32.315Z,99747.41
2022-12-23T05:34:58.967Z,99754.34
2022-12-23T05:37:25.607Z,99753.44
2022-12-23T05:39:52.202Z,99752.59
2022-12-23T05:42:18.820Z,99747.44
2022-12-23T05:44:45.847Z,99741.38
2022-12-23T05:47:12.430Z,99726.53
2022-12-23T05:49:39.069Z,99730.78
2022-12-23T05:52:05.801Z,99737.69
2022-12-23T05:54:32.572Z,99734.22
2022-12-23T05:56:59.266Z,99743.78
2022-12-23T05:59:30.761Z,99748.00
2022-12-23T06:01:58.240Z,99776.69
2022-12-23T06:04:24.994Z,99769.84
2022-12-23T06:06:51.612Z,99778.53
2022-12-23T06:09:18.209Z,99791.53
2022-12-23T06:11:44.791Z,99791.56
2022-12-23T06:14:11.457Z,99786.38
2022-12-23T06:16:38.234Z,99781.19
2022-12-23T06:19:04.847Z,99769.03
2022-12-23T06:21:31.448Z,99767.28
2022-12-23T06:23:58.105Z,99760.34
2022-12-23T06:26:24.756Z,99768.13
2022-12-23T06:28:51.416Z,99771.63
2022-12-23T06:31:18.679Z,99771.56
2022-12-23T06:33:45.374Z,99765.50
2022-12-23T06:36:11.939Z,99758.56
2022-12-23T06:38:38.598Z,99765.53
2022-12-23T06:41:05.184Z,99760.25
2022-12-23T06:43:31.840Z,99755.13
2022-12-23T06:45:58.479Z,99752.44
2022-12-23T06:48:25.102Z,99742.97
2022-12-23T06:50:51.765Z,99733.31
2022-12-23T06:53:18.799Z,99742.88
2022-12-23T06:55:45.388Z,99756.81
2022-12-23T06:58:12.009Z,99762.06
2022-12-23T07:00:38.767Z,99772.50
2022-12-23T07:03:05.483Z,99784.63
2022-12-23T07:05:36.965Z,99792.41
2022-12-23T07:08:04.651Z,99788.97
2022-12-23T07:10:31.255Z,99779.44
2022-12-23T07:12:57.831Z,99795.03
2022-12-23T07:15:24.456Z,99801.94
2022-12-23T07:17:51.063Z,99814.00
2022-12-23T07:20:17.733Z,99818.25
2022-12-23T07:22:44.378Z,99827.84
2022-12-23T07:25:10.985Z,99832.97
2022-12-23T07:27:37.595Z,99819.91
2022-12-23T07:30:04.657Z,99823.25
2022-12-23T07:32:31.255Z,99819.97
2022-12-23T07:34:57.943Z,99807.84
2022-12-23T07:37:24.551Z,99807.94
2022-12-23T07:39:51.120Z,99791.50
2022-12-23T07:42:43.558Z,99791.56
2022-12-23T07:45:04.756Z,99788.97
2022-12-23T07:47:31.469Z,99785.50
2022-12-23T07:49:58.085Z,99789.81
2022-12-23T07:52:24.699Z,99782.88
2022-12-23T07:54:51.295Z,99788.97
2022-12-23T07:57:17.893Z,99790.72
2022-12-23T07:59:44.444Z,99793.28
2022-12-23T08:02:11.330Z,99782.03
2022-12-23T08:04:42.652Z,99775.97
2022-12-23T08:07:12.414Z,99791.56
2022-12-23T08:09:39.025Z,99781.06
2022-12-23T08:12:05.874Z,99785.47
2022-12-23T08:14:32.536Z,99770.78
2022-12-23T08:16:59.195Z,99771.63
2022-12-23T08:19:25.828Z,99768.19
2022-12-23T08:21:52.506Z,99767.34
2022-12-23T08:24:19.109Z,99760.41
2022-12-23T08:26:45.700Z,99758.66
2022-12-23T08:29:12.270Z,99775.13
2022-12-23T08:31:38.864Z,99770.72
2022-12-23T08:34:05.463Z,99780.28
2022-12-23T08:36:34.295Z,99769.88
2022-12-23T08:39:05.157Z,99773.31
2022-12-23T08:41:34.394Z,99757.78
2022-12-23T08:44:01.072Z,99758.69
2022-12-23T08:46:28.406Z,99760.38
2022-12-23T08:48:55.568Z,99762.13
2022-12-23T08:51:24.472Z,99760.34
2022-12-23T08:53:59.597Z,99762.94
2022-12-23T08:56:30.151Z,99764.75
2022-12-23T08:58:57.392Z,99760.34
2022-12-23T09:01:27.620Z,99757.81
2022-12-23T09:03:54.452Z,99737.84
2022-12-23T09:06:29.529Z,99723.16
2022-12-23T09:08:57.331Z,99708.47
2022-12-23T09:11:26.508Z,99696.34
2022-12-23T09:13:53.327Z,99704.06
2022-12-23T09:16:20.352Z,99721.34
2022-12-23T09:18:47.059Z,99735.25
2022-12-23T09:21:18.074Z,99732.69
2022-12-23T09:23:44.713Z,99736.94
2022-12-23T09:26:18.103Z,99741.34
2022-12-23T09:28:44.708Z,99750.88
2022-12-23T09:31:12.865Z,99744.81
2022-12-23T09:33:40.120Z,99744.78
2022-12-23T09:36:07.190Z,99744.75
2022-12-23T09:38:34.304Z,99744.78
2022-12-23T09:41:22.398Z,99758.63
2022-12-23T09:43:49.005Z,99743.03
2022-12-23T09:46:22.958Z,99734.41
2022-12-23T09:49:05.077Z,99730.97
2022-12-23T09:51:33.564Z,99730.91
2022-12-23T09:54:24.946Z,99711.84
2022-12-23T09:57:24.081Z,99700.44
2022-12-23T10:00:15.596Z,99708.25
2022-12-23T10:02:59.409Z,99721.31
2022-12-23T10:05:29.151Z,99737.00
2022-12-23T10:08:02.111Z,99740.47
2022-12-23T10:10:34.381Z,99732.63
2022-12-23T10:13:04.985Z,99706.66
2022-12-23T10:15:38.009Z,99694.59
2022-12-23T10:18:33.741Z,99671.09
2022-12-23T10:21:06.159Z,99664.16
2022-12-23T10:23:42.577Z,99670.25
2022-12-23T10:26:38.361Z,99676.09
2022-12-23T10:29:19.447Z,99677.84
2022-12-23T10:32:41.991Z,99671.00
2022-12-23T10:35:35.668Z,99677.06
2022-12-23T10:38:15.710Z,99668.41
2022-12-23T10:40:51.217Z,99659.69
2022-12-23T10:43:54.120Z,99659.72
2022-12-23T10:46:36.849Z,99648.56
2022-12-23T10:49:21.916Z,99644.28
2022-12-23T10:51:53.612Z,99648.50
2022-12-23T10:54:33.083Z,99641.53
2022-12-23T10:57:00.721Z,99641.47
2022-12-23T10:59:30.922Z,99636.28
2022-12-23T11:02:12.804Z,99628.47
2022-12-23T11:04:42.787Z,99632.69
2022-12-23T11:10:08.004Z,99643.16
2022-12-23T11:12:53.692Z,99642.38
2022-12-23T11:15:27.763Z,99644.88
2022-12-23T11:17:58.907Z,99646.50
2022-12-23T11:20:26.359Z,99637.97
2022-12-23T11:23:01.485Z,99632.63
2022-12-23T11:25:36.065Z,99639.75
2022-12-23T11:28:06.911Z,99631.19
2022-12-23T11:30:38.813Z,99637.97
2022-12-23T11:33:05.453Z,99640.44
2022-12-23T11:35:34.086Z,99642.06
2022-12-23T11:38:02.328Z,99632.69
2022-12-23T11:40:35.560Z,99628.19
2022-12-23T11:43:06.154Z,99642.72
2022-12-23T11:45:38.166Z,99653.94
2022-12-23T11:48:06.330Z,99656.44
2022-12-23T11:50:36.921Z,99642.25
2022-12-23T11:53:13.884Z,99648.00
2022-12-23T11:55:46.975Z,99653.78
2022-12-23T11:58:21.865Z,99662.41
2022-12-23T12:01:13.906Z,99664.31
2022-12-23T12:03:48.777Z,99663.03
2022-12-23T12:06:17.118Z,99666.03
2022-12-23T12:08:43.740Z,99656.78
2022-12-23T12:11:25.947Z,99665.34
2022-12-23T12:13:59.617Z,99661.63
2022-12-23T12:17:01.628Z,99669.50
2022-12-23T12:19:33.461Z,99661.75
2022-12-23T12:22:06.317Z,99661.56
2022-12-23T12:24:45.005Z,99666.00
2022-12-23T12:27:11.957Z,99659.03
2022-12-23T12:29:41.397Z,99654.19
2022-12-23T12:32:23.308Z,99660.28
2022-12-23T12:34:49.853Z,99652.78
2022-12-23T12:37:28.605Z,99651.03
2022-12-23T12:40:22.968Z,99648.31
2022-12-23T12:42:57.396Z,99657.63
2022-12-23T12:45:28.400Z,99653.38
2022-12-23T12:48:20.022Z,99650.78
2022-12-23T12:51:24.302Z,99647.13
2022-12-23T12:54:05.644Z,99652.19
2022-12-23T12:56:57.265Z,99646.75
2022-12-23T12:59:29.427Z,99650.28
2022-12-23T13:02:05.180Z,99650.69
2022-12-23T13:04:53.878Z,99653.31
2022-12-23T13:07:39.052Z,99663.50
2022-12-23T13:10:11.388Z,99665.31
2022-12-23T13:12:47.278Z,99668.22
2022-12-23T13:15:31.453Z,99669.09
2022-12-23T13:18:23.716Z,99672.34
2022-12-23T13:21:06.745Z,99662.94
2022-12-23T13:24:02.008Z,99652.19
2022-12-23T13:26:40.293Z,99663.53
2022-12-23T13:29:34.857Z,99658.66
2022-12-23T13:32:25.820Z,99663.78
2022-12-23T13:35:14.184Z,99657.34
2022-12-23T13:37:40.727Z,99660.25
2022-12-23T13:40:30.707Z,99654.56
2022-12-23T13:43:08.830Z,99654.56
2022-12-23T13:45:38.801Z,99646.34
2022-12-23T13:48:27.032Z,99659.13
2022-12-23T13:51:07.972Z,99660.81
2022-12-23T13:54:04.509Z,99667.69
2022-12-23T13:56:48.678Z,99666.13
2022-12-23T13:59:16.743Z,99665.97
2022-12-23T14:01:46.863Z,99668.53
2022-12-23T14:04:28.868Z,99662.00
2022-12-23T14:07:01.437Z,99661.19
2022-12-23T14:09:32.686Z,99661.00
2022-12-23T14:12:13.058Z,99659.09
2022-12-23T14:14:56.237Z,99663.59
2022-12-23T14:17:38.270Z,99671.66
2022-12-23T14:20:14.072Z,99661.34
2022-12-23T14:23:03.812Z,99660.25
2022-12-23T14:25:56.365Z,99675.44
2022-12-23T14:28:41.518Z,99676.00
2022-12-23T14:31:39.758Z,99674.47
2022-12-23T14:34:35.669Z,99667.91
2022-12-23T14:37:20.311Z,99679.88
2022-12-23T14:39:50.282Z,99681.16
2022-12-23T14:42:41.505Z,99677.56
2022-12-23T14:45:30.149Z,99692.78
2022-12-23T14:47:56.877Z,99682.00
2022-12-23T14:50:42.968Z,99673.44
2022-12-23T14:53:15.650Z,99684.47
2022-12-23T14:55:43.204Z,99679.63
2022-12-23T14:58:53.914Z,99679.44
2022-12-23T15:01:39.360Z,99676.06
2022-12-23T15:04:20.482Z,99679.63
2022-12-23T15:07:04.311Z,99687.41
2022-12-23T15:09:47.250Z,99681.84
2022-12-23T15:12:26.256Z,99695.47
2022-12-23T15:14:57.836Z,99698.28
2022-12-23T15:17:30.166Z,99685.25
2022-12-23T15:20:22.896Z,99698.78
2022-12-23T15:22:50.510Z,99699.59
2022-12-23T15:25:33.263Z,99715.00
2022-12-23T15:28:02.865Z,99709.59
2022-12-23T15:30:56.754Z,99706.72
2022-12-23T15:34:01.511Z,99705.00
2022-12-23T15:36:29.637Z,99699.88
2022-12-23T15:38:57.848Z,99693.88
2022-12-23T15:41:24.522Z,99689.88
2022-12-23T15:43:51.845Z,99696.84
2022-12-23T15:46:28.697Z,99696.91
2022-12-23T15:48:56.902Z,99691.75
2022-12-23T15:52:06.572Z,99696.53
2022-12-23T15:54:32.333Z,99694.78
2022-12-23T15:57:01.178Z,99706.28
2022-12-23T15:59:32.716Z,99703.09
2022-12-23T16:02:24.930Z,99690.34
2022-12-23T16:04:57.689Z,99681.97
2022-12-23T16:07:34.146Z,99683.50
2022-12-23T16:10:03.631Z,99686.69
2022-12-23T16:12:31.425Z,99704.06
2022-12-23T16:14:59.589Z,99694.78
2022-12-23T16:17:36.794Z,99698.47
2022-12-23T16:20:22.685Z,99697.50
2022-12-23T16:22:53.273Z,99695.50
2022-12-23T16:25:26.864Z,99702.00
2022-12-23T16:27:59.633Z,99702.13
2022-12-23T16:30:38.057Z,99699.09
2022-12-23T16:33:26.913Z,99696.84
2022-12-23T16:35:54.463Z,99693.56
2022-12-23T16:38:26.278Z,99691.81
2022-12-23T16:40:55.081Z,99697.59
2022-12-23T16:43:23.604Z,99690.88
2022-12-23T16:45:56.134Z,99694.97
2022-12-23T16:48:38.955Z,99696.97
2022-12-23T16:51:11.526Z,99691.44
2022-12-23T16:53:38.173Z,99695.19
2022-12-23T16:56:19.799Z,99688.34
2022-12-23T16:58:46.816Z,99680.41
2022-12-23T17:01:15.320Z,99678.16
2022-12-23T17:03:42.015Z,99674.97
2022-12-23T17:06:13.614Z,99675.16
2022-12-23T17:08:40.672Z,99671.47
2022-12-23T17:11:14.791Z,99675.72
2022-12-23T17:13:42.033Z,99680.75
2022-12-23T17:16:16.809Z,99687.53
2022-12-23T17:18:43.499Z,99692.59
2022-12-23T17:21:23.388Z,99683.09
2022-12-23T17:23:52.229Z,99679.88
2022-12-23T17:26:19.496Z,99682.50
2022-12-23T17:28:46.132Z,99673.81
2022-12-23T17:31:15.523Z,99671.34
2022-12-23T17:33:44.803Z,99676.31
2022-12-23T17:36:12.059Z,99672.91
2022-12-23T17:38:38.698Z,99666.94
2022-12-23T17:41:05.602Z,99655.00
2022-12-23T17:43:32.211Z,99657.44
2022-12-23T17:45:58.846Z,99670.88
2022-12-23T17:48:31.375Z,99669.66
2022-12-23T17:50:58.307Z,99665.19
2022-12-23T17:53:24.899Z,99664.75
2022-12-23T17:55:51.517Z,99672.03
2022-12-23T17:58:18.147Z,99667.06
2022-12-23T18:00:44.861Z,99667.06
2022-12-23T18:03:23.069Z,99679.84
2022-12-23T18:05:54.249Z,99685.03
2022-12-23T18:08:25.848Z,99673.19
2022-12-23T18:10:52.656Z,99668.94
2022-12-23T18:13:19.911Z,99671.13
2022-12-23T18:15:46.538Z,99676.56
2022-12-23T18:18:28.082Z,99666.69
2022-12-23T18:21:00.204Z,99659.28
2022-12-23T18:23:29.899Z,99654.81
2022-12-23T18:25:57.667Z,99648.38
2022-12-23T18:28:25.045Z,99652.78
2022-12-23T18:30:53.697Z,99653.75
2022-12-23T18:33:20.371Z,99663.41
2022-12-23T18:35:48.665Z,99664.09
2022-12-23T18:38:17.077Z,99665.06
2022-12-23T18:40:44.402Z,99662.44
2022-12-23T18:43:18.880Z,99668.28
2022-12-23T18:45:52.216Z,99670.94
2022-12-23T18:48:19.637Z,99669.22
2022-12-23T18:50:46.355Z,99667.69
2022-12-23T18:53:24.565Z,99678.16
2022-12-23T18:55:52.964Z,99678.13
2022-12-23T18:58:20.096Z,99679.94
2022-12-23T19:00:48.286Z,99687.69
2022-12-23T19:03:22.558Z,99686.06
2022-12-23T19:05:51.147Z,99684.31
2022-12-23T19:08:25.537Z,99686.81
2022-12-23T19:10:54.495Z,99691.28
2022-12-23T19:13:21.846Z,99691.97
2022-12-23T19:15:48.602Z,99692.09
2022-12-23T19:18:18.950Z,99693.16
2022-12-23T19:20:46.655Z,99689.59
2022-12-23T19:23:13.728Z,99696.56
2022-12-23T19:25:41.964Z,99690.34
2022-12-23T19:28:11.311Z,99697.28
2022-12-23T19:30:40.820Z,99698.88
2022-12-23T19:33:08.184Z,99708.72
2022-12-23T19:35:34.786Z,99712.94
2022-12-23T19:38:01.378Z,99714.72
2022-12-23T19:40:29.174Z,99717.91
2022-12-23T19:42:55.746Z,99708.94
2022-12-23T19:45:22.329Z,99711.72
2022-12-23T19:47:48.898Z,99709.69
2022-12-23T19:50:15.598Z,99713.53
2022-12-23T19:52:42.181Z,99705.06
2022-12-23T19:55:09.092Z,99709.75
2022-12-23T19:57:35.704Z,99716.59
2022-12-23T20:00:02.538Z,99717.22
2022-12-23T20:02:32.199Z,99715.84
2022-12-23T20:04:58.852Z,99716.09
2022-12-23T20:07:25.436Z,99716.16
2022-12-23T20:09:52.021Z,99720.53
2022-12-23T20:12:18.736Z,99723.22
2022-12-23T20:14:45.483Z,99726.53
2022-12-23T20:17:12.162Z,99728.59
2022-12-23T20:19:45.591Z,99718.28
2022-12-23T20:22:14.225Z,99723.53
2022-12-23T20:24:41.096Z,99716.66
2022-12-23T20:27:11.403Z,99708.97
2022-12-23T20:29:39.195Z,99714.16
2022-12-23T20:32:06.016Z,99702.78
2022-12-23T20:34:38.704Z,99704.50
2022-12-23T20:37:07.251Z,99701.94
2022-12-23T20:39:34.407Z,99692.47
2022-12-23T20:42:01.141Z,99681.19
2022-12-23T20:44:37.002Z,99685.50
2022-12-23T20:47:05.791Z,99684.56
2022-12-23T20:49:32.633Z,99671.28
2022-12-23T20:51:59.366Z,99666.94
2022-12-23T20:54:32.127Z,99676.44
2022-12-23T20:57:01.670Z,99665.25
2022-12-23T20:59:28.405Z,99657.13
2022-12-23T21:01:55.150Z,99649.09
2022-12-23T21:04:22.038Z,99657.22
2022-12-23T21:06:48.629Z,99663.94
2022-12-23T21:09:15.864Z,99660.59
2022-12-23T21:11:44.931Z,99673.72
2022-12-23T21:14:12.533Z,99674.66
2022-12-23T21:16:39.716Z,99672.75
2022-12-23T21:19:08.784Z,99673.94
2022-12-23T21:21:35.725Z,99660.91
2022-12-23T21:24:03.484Z,99663.25
2022-12-23T21:26:31.343Z,99663.66
2022-12-23T21:28:59.566Z,99669.28
2022-12-23T21:31:27.764Z,99656.22
2022-12-23T21:33:54.528Z,99648.81
2022-12-23T21:36:23.709Z,99643.41
2022-12-23T21:38:51.045Z,99648.56
2022-12-23T21:41:37.752Z,99642.59
2022-12-23T21:44:05.369Z,99641.84
2022-12-23T21:46:32.007Z,99631.50
2022-12-23T21:48:59.570Z,99629.78
2022-12-23T21:51:35.010Z,99627.88
2022-12-23T21:54:03.550Z,99626.16
2022-12-23T21:56:31.362Z,99615.78
2022-12-23T21:59:00.631Z,99630.56
2022-12-23T22:01:28.231Z,99629.78
2022-12-23T22:03:55.965Z,99615.09
2022-12-23T22:06:25.522Z,99619.50
2022-12-23T22:08:53.977Z,99616.19
2022-12-23T22:11:24.343Z,99616.53
2022-12-23T22:13:51.415Z,99608.88
2022-12-23T22:16:23.440Z,99609.81
2022-12-23T22:18:51.310Z,99591.66
2022-12-23T22:21:20.110Z,99589.50
2022-12-23T22:23:47.941Z,99579.25
2022-12-23T22:26:22.337Z,99558.56
2022-12-23T22:28:52.181Z,99549.13
2022-12-23T22:31:27.853Z,99545.56
2022-12-23T22:33:54.441Z,99538.72
2022-12-23T22:36:21.074Z,99543.78
2022-12-23T22:38:56.690Z,99549.22
2022-12-23T22:41:25.207Z,99543.91
2022-12-23T22:43:51.795Z,99549.28
2022-12-23T22:46:18.970Z,99550.34
2022-12-23T22:48:46.059Z,99539.44
2022-12-23T22:51:25.189Z,99549.97
2022-12-23T22:53:52.350Z,99547.19
2022-12-23T22:56:20.886Z,99543.69
2022-12-23T22:58:48.642Z,99536.84
2022-12-23T23:01:35.928Z,99530.91
2022-12-23T23:04:04.271Z,99525.78
2022-12-23T23:06:34.371Z,99523.19
2022-12-23T23:09:01.313Z,99517.81
2022-12-23T23:11:28.249Z,99524.09
2022-12-23T23:13:55.714Z,99529.41
2022-12-23T23:16:23.280Z,99526.41
2022-12-23T23:18:50.653Z,99534.88
2022-12-23T23:21:17.245Z,99551.72
2022-12-23T23:23:44.062Z,99549.25
2022-12-23T23:26:10.888Z,99538.81
2022-12-23T23:28:41.312Z,99537.88
2022-12-23T23:31:40.374Z,99542.06
2022-12-23T23:33:56.103Z,99543.03
2022-12-23T23:36:22.712Z,99548.19
2022-12-23T23:38:49.339Z,99560.31
2022-12-23T23:41:20.645Z,99567.34
2022-12-23T23:43:49.684Z,99564.69
2022-12-23T23:46:16.304Z,99559.47
2022-12-23T23:48:43.020Z,99561.34
2022-12-23T23:51:09.699Z,99532.53
2022-12-23T23:53:36.304Z,99525.41
2022-12-23T23:56:07.804Z,99530.25
2022-12-23T23:58:35.337Z,99518.63
